createdAt,value
2023-06-25T00:00:32.633Z,26.91
2023-06-25T00:01:32.706Z,25.69
2023-06-25T00:02:32.748Z,30.88
2023-06-25T00:03:32.804Z,27.32
2023-06-25T00:04:32.812Z,29.16
2023-06-25T00:05:32.833Z,29.46
2023-06-25T00:06:32.880Z,28.97
2023-06-25T00:07:33.929Z,27.56
2023-06-25T00:08:32.980Z,29.43
2023-06-25T00:09:32.996Z,26.04
2023-06-25T00:10:33.066Z,25.60
2023-06-25T00:11:33.100Z,28.06
2023-06-25T00:12:33.138Z,27.94
2023-06-25T00:13:33.177Z,28.88
2023-06-25T00:14:33.244Z,28.72
2023-06-25T00:15:33.284Z,26.76
2023-06-25T00:16:33.358Z,25.40
2023-06-25T00:17:33.440Z,27.30
2023-06-25T00:18:33.454Z,32.49
2023-06-25T00:19:33.516Z,28.99
2023-06-25T00:20:35.706Z,30.96
2023-06-25T00:21:33.636Z,32.71
2023-06-25T00:22:33.661Z,28.72
2023-06-25T00:23:33.758Z,31.99
2023-06-25T00:24:33.778Z,33.12
2023-06-25T00:25:33.885Z,31.16
2023-06-25T00:26:34.462Z,29.54
2023-06-25T00:27:34.434Z,32.81
2023-06-25T00:28:34.012Z,29.56
2023-06-25T00:29:34.079Z,29.26
2023-06-25T00:30:34.192Z,30.51
2023-06-25T00:31:34.223Z,33.66
2023-06-25T00:32:34.256Z,30.62
2023-06-25T00:33:34.271Z,29.64
2023-06-25T00:34:34.320Z,30.44
2023-06-25T00:35:34.396Z,29.66
2023-06-25T00:36:34.420Z,30.00
2023-06-25T00:37:35.442Z,29.79
2023-06-25T00:38:34.539Z,33.56
2023-06-25T00:39:34.589Z,33.00
2023-06-25T00:40:34.791Z,28.79
2023-06-25T00:41:34.706Z,28.25
2023-06-25T00:42:34.726Z,31.36
2023-06-25T00:43:34.785Z,29.95
2023-06-25T00:44:34.858Z,31.26
2023-06-25T00:45:36.084Z,28.75
2023-06-25T00:46:34.974Z,30.13
2023-06-25T00:47:35.065Z,31.49
2023-06-25T00:48:35.082Z,29.58
2023-06-25T00:49:37.000Z,30.32
2023-06-25T00:50:35.342Z,30.46
2023-06-25T00:51:35.246Z,31.03
2023-06-25T00:52:35.304Z,31.62
2023-06-25T00:53:35.369Z,31.93
2023-06-25T00:54:35.397Z,32.17
2023-06-25T00:55:35.671Z,32.69
2023-06-25T00:56:35.486Z,33.64
2023-06-25T00:57:35.587Z,32.06
2023-06-25T00:58:35.596Z,33.12
2023-06-25T00:59:35.656Z,29.95
2023-06-25T01:00:36.598Z,31.57
2023-06-25T01:01:35.753Z,29.01
2023-06-25T01:02:35.929Z,31.88
2023-06-25T01:03:35.997Z,30.11
2023-06-25T01:04:35.951Z,28.52
2023-06-25T01:05:36.317Z,30.23
2023-06-25T01:06:37.016Z,30.50
2023-06-25T01:07:35.968Z,30.40
2023-06-25T01:08:35.988Z,28.38
2023-06-25T01:09:35.972Z,25.96
2023-06-25T01:10:35.960Z,26.62
2023-06-25T01:11:35.976Z,27.99
2023-06-25T01:12:35.971Z,25.35
2023-06-25T01:13:35.946Z,27.03
2023-06-25T01:14:36.011Z,28.33
2023-06-25T01:15:36.223Z,28.90
2023-06-25T01:16:36.047Z,28.16
2023-06-25T01:17:36.113Z,26.91
2023-06-25T01:18:36.266Z,28.51
2023-06-25T01:19:36.242Z,31.40
2023-06-25T01:20:36.302Z,27.19
2023-06-25T01:21:36.334Z,25.79
2023-06-25T01:22:36.399Z,26.66
2023-06-25T01:23:36.496Z,26.00
2023-06-25T01:24:36.538Z,28.24
2023-06-25T01:25:36.878Z,28.35
2023-06-25T01:26:36.625Z,25.62
2023-06-25T01:27:36.702Z,25.00
2023-06-25T01:28:36.760Z,25.95
2023-06-25T01:29:36.766Z,28.08
2023-06-25T01:30:36.791Z,27.35
2023-06-25T01:31:36.861Z,28.36
2023-06-25T01:32:36.909Z,27.83
2023-06-25T01:33:36.876Z,29.65
2023-06-25T01:34:36.897Z,28.36
2023-06-25T01:35:37.160Z,26.90
2023-06-25T01:36:37.018Z,26.04
2023-06-25T01:37:37.045Z,26.64
2023-06-25T01:38:37.065Z,32.39
2023-06-25T01:39:37.088Z,27.66
2023-06-25T01:40:37.120Z,26.34
2023-06-25T01:41:37.182Z,26.18
2023-06-25T01:42:37.485Z,28.79
2023-06-25T01:43:37.326Z,30.54
2023-06-25T01:44:37.362Z,26.78
2023-06-25T01:45:37.583Z,28.53
2023-06-25T01:46:37.464Z,31.25
2023-06-25T01:47:37.571Z,26.56
2023-06-25T01:48:37.494Z,29.18
2023-06-25T01:49:37.516Z,29.04
2023-06-25T01:50:37.543Z,25.00
2023-06-25T01:51:37.583Z,28.60
2023-06-25T01:52:37.581Z,26.29
2023-06-25T01:53:37.589Z,27.52
2023-06-25T01:54:37.585Z,30.24
2023-06-25T01:55:37.749Z,31.11
2023-06-25T01:56:37.645Z,30.39
2023-06-25T01:57:37.758Z,33.65
2023-06-25T01:58:37.726Z,30.42
2023-06-25T01:59:37.813Z,31.13
2023-06-25T02:00:37.840Z,28.15
2023-06-25T02:01:38.649Z,29.19
2023-06-25T02:02:38.139Z,29.63
2023-06-25T02:03:39.057Z,29.95
2023-06-25T02:04:38.120Z,30.21
2023-06-25T02:05:38.355Z,31.30
2023-06-25T02:06:38.167Z,29.76
2023-06-25T02:07:38.194Z,27.69
2023-06-25T02:08:38.246Z,30.20
2023-06-25T02:09:38.208Z,29.03
2023-06-25T02:10:38.989Z,28.23
2023-06-25T02:11:38.258Z,28.83
2023-06-25T02:12:39.256Z,29.17
2023-06-25T02:13:38.256Z,29.72
2023-06-25T02:14:38.217Z,30.33
2023-06-25T02:15:38.483Z,30.34
2023-06-25T02:16:38.246Z,31.44
2023-06-25T02:17:38.280Z,30.19
2023-06-25T02:18:38.233Z,31.67
2023-06-25T02:19:38.200Z,28.89
2023-06-25T02:20:38.205Z,28.27
2023-06-25T02:21:38.167Z,30.15
2023-06-25T02:22:38.168Z,30.19
2023-06-25T02:23:38.171Z,30.78
2023-06-25T02:24:38.189Z,28.62
2023-06-25T02:25:38.471Z,26.96
2023-06-25T02:26:38.164Z,29.01
2023-06-25T02:27:38.146Z,29.40
2023-06-25T02:28:38.152Z,29.90
2023-06-25T02:29:38.149Z,31.57
2023-06-25T02:30:38.121Z,30.45
2023-06-25T02:31:38.163Z,30.34
2023-06-25T02:32:38.169Z,27.80
2023-06-25T02:33:38.104Z,27.36
2023-06-25T02:34:38.127Z,29.10
2023-06-25T02:35:38.234Z,29.35
2023-06-25T02:36:38.089Z,30.25
2023-06-25T02:37:38.052Z,30.68
2023-06-25T02:38:38.092Z,31.02
2023-06-25T02:39:38.099Z,31.59
2023-06-25T02:40:38.042Z,30.30
2023-06-25T02:41:38.066Z,32.54
2023-06-25T02:42:38.039Z,30.59
2023-06-25T02:43:38.071Z,30.72
2023-06-25T02:44:38.040Z,30.95
2023-06-25T02:45:38.288Z,31.89
2023-06-25T02:46:38.036Z,31.90
2023-06-25T02:47:38.042Z,31.78
2023-06-25T02:48:37.976Z,29.72
2023-06-25T02:49:38.033Z,30.42
2023-06-25T02:50:38.006Z,30.43
2023-06-25T02:51:37.994Z,31.15
2023-06-25T02:52:37.955Z,29.31
2023-06-25T02:53:38.025Z,27.62
2023-06-25T02:54:37.947Z,30.56
2023-06-25T02:55:38.175Z,32.50
2023-06-25T02:56:37.934Z,30.78
2023-06-25T02:57:37.929Z,33.01
2023-06-25T02:58:37.911Z,29.09
2023-06-25T02:59:37.926Z,31.52
2023-06-25T03:00:37.940Z,29.97
2023-06-25T03:01:37.953Z,29.52
2023-06-25T03:02:38.604Z,32.98
2023-06-25T03:03:37.972Z,33.37
2023-06-25T03:04:37.884Z,31.56
2023-06-25T03:05:38.095Z,33.38
2023-06-25T03:06:37.861Z,33.32
2023-06-25T03:07:37.868Z,38.36
2023-06-25T03:08:37.910Z,34.91
2023-06-25T03:09:37.894Z,32.51
2023-06-25T03:10:37.939Z,32.51
2023-06-25T03:11:37.900Z,33.37
2023-06-25T03:12:37.956Z,32.75
2023-06-25T03:13:37.922Z,33.09
2023-06-25T03:14:37.933Z,31.06
2023-06-25T03:15:39.711Z,31.43
2023-06-25T03:16:37.921Z,31.71
2023-06-25T03:17:38.079Z,33.25
2023-06-25T03:18:37.942Z,36.85
2023-06-25T03:19:37.929Z,36.19
2023-06-25T03:20:37.901Z,37.80
2023-06-25T03:21:37.888Z,37.83
2023-06-25T03:22:38.051Z,38.06
2023-06-25T03:23:37.883Z,40.08
2023-06-25T03:24:37.878Z,38.97
2023-06-25T03:25:38.113Z,40.49
2023-06-25T03:26:37.868Z,39.75
2023-06-25T03:27:37.876Z,40.01
2023-06-25T03:28:37.881Z,38.80
2023-06-25T03:29:37.876Z,39.68
2023-06-25T03:30:37.845Z,40.04
2023-06-25T03:31:37.831Z,40.88
2023-06-25T03:32:37.869Z,41.67
2023-06-25T03:33:37.809Z,38.12
2023-06-25T03:34:37.794Z,42.98
2023-06-25T03:35:38.167Z,39.67
2023-06-25T03:36:37.813Z,39.11
2023-06-25T03:37:37.798Z,38.66
2023-06-25T03:38:37.769Z,39.99
2023-06-25T03:39:37.752Z,39.54
2023-06-25T03:40:37.752Z,38.67
2023-06-25T03:41:37.754Z,40.02
2023-06-25T03:42:37.730Z,38.31
2023-06-25T03:43:37.745Z,40.94
2023-06-25T03:44:37.718Z,37.98
2023-06-25T03:45:37.998Z,38.16
2023-06-25T03:46:37.770Z,36.50
2023-06-25T03:47:37.923Z,35.93
2023-06-25T03:48:37.786Z,31.52
2023-06-25T03:49:37.829Z,36.98
2023-06-25T03:50:37.840Z,35.77
2023-06-25T03:51:37.830Z,35.69
2023-06-25T03:52:37.839Z,36.38
2023-06-25T03:53:37.857Z,36.73
2023-06-25T03:54:37.894Z,34.14
2023-06-25T03:55:38.204Z,36.18
2023-06-25T03:56:37.934Z,35.94
2023-06-25T03:57:37.969Z,38.25
2023-06-25T03:58:38.003Z,36.32
2023-06-25T03:59:37.998Z,35.26
2023-06-25T04:00:38.010Z,35.09
2023-06-25T04:01:38.048Z,37.61
2023-06-25T04:02:38.047Z,37.75
2023-06-25T04:03:38.083Z,37.31
2023-06-25T04:04:38.064Z,37.76
2023-06-25T04:05:38.248Z,35.66
2023-06-25T04:06:38.102Z,41.08
2023-06-25T04:07:38.122Z,42.75
2023-06-25T04:08:38.146Z,41.90
2023-06-25T04:09:38.184Z,44.47
2023-06-25T04:10:38.203Z,40.77
2023-06-25T04:11:38.228Z,42.82
2023-06-25T04:12:38.239Z,43.22
2023-06-25T04:13:38.222Z,48.68
2023-06-25T04:14:38.253Z,46.16
2023-06-25T04:15:38.664Z,46.14
2023-06-25T04:16:38.334Z,47.15
2023-06-25T04:17:38.416Z,47.81
2023-06-25T04:18:38.365Z,46.99
2023-06-25T04:19:38.379Z,47.73
2023-06-25T04:20:38.373Z,49.37
2023-06-25T04:21:38.421Z,48.51
2023-06-25T04:22:38.476Z,51.34
2023-06-25T04:23:38.472Z,49.39
2023-06-25T04:24:38.514Z,52.05
2023-06-25T04:25:38.681Z,50.40
2023-06-25T04:26:38.583Z,48.53
2023-06-25T04:27:38.567Z,49.08
2023-06-25T04:28:38.609Z,48.15
2023-06-25T04:29:38.619Z,49.26
2023-06-25T04:30:38.665Z,49.02
2023-06-25T04:31:38.727Z,49.81
2023-06-25T04:32:38.747Z,52.27
2023-06-25T04:33:38.723Z,52.42
2023-06-25T04:34:38.773Z,54.23
2023-06-25T04:35:38.995Z,52.54
2023-06-25T04:36:38.855Z,55.85
2023-06-25T04:37:38.833Z,56.08
2023-06-25T04:38:38.930Z,57.46
2023-06-25T04:39:38.899Z,56.78
2023-06-25T04:40:38.943Z,57.40
2023-06-25T04:41:38.936Z,58.76
2023-06-25T04:42:39.071Z,57.56
2023-06-25T04:43:39.020Z,62.04
2023-06-25T04:44:39.040Z,59.78
2023-06-25T04:45:39.299Z,61.03
2023-06-25T04:46:39.157Z,61.58
2023-06-25T04:47:39.171Z,63.38
2023-06-25T04:48:39.158Z,59.68
2023-06-25T04:49:39.191Z,55.87
2023-06-25T04:50:39.228Z,51.54
2023-06-25T04:51:39.283Z,50.31
2023-06-25T04:52:39.330Z,50.65
2023-06-25T04:53:39.354Z,48.21
2023-06-25T04:54:39.415Z,47.40
2023-06-25T04:55:39.812Z,47.79
2023-06-25T04:56:39.492Z,48.47
2023-06-25T04:57:39.530Z,46.66
2023-06-25T04:58:39.590Z,48.15
2023-06-25T04:59:39.634Z,45.60
2023-06-25T05:00:39.694Z,46.91
2023-06-25T05:01:39.847Z,49.18
2023-06-25T05:02:39.872Z,48.55
2023-06-25T05:03:39.851Z,48.33
2023-06-25T05:04:39.867Z,48.69
2023-06-25T05:05:39.858Z,48.97
2023-06-25T05:06:39.957Z,49.54
2023-06-25T05:07:39.995Z,48.07
2023-06-25T05:08:40.016Z,49.19
2023-06-25T05:09:40.064Z,48.49
2023-06-25T05:10:40.089Z,48.98
2023-06-25T05:11:40.135Z,45.01
2023-06-25T05:12:40.147Z,49.43
2023-06-25T05:13:40.181Z,48.25
2023-06-25T05:14:40.236Z,50.77
2023-06-25T05:15:40.282Z,46.50
2023-06-25T05:16:40.312Z,48.02
2023-06-25T05:17:40.425Z,46.40
2023-06-25T05:18:40.347Z,43.70
2023-06-25T05:19:40.437Z,47.49
2023-06-25T05:20:40.459Z,46.57
2023-06-25T05:21:40.473Z,44.30
2023-06-25T05:22:40.520Z,44.18
2023-06-25T05:23:40.563Z,47.80
2023-06-25T05:24:40.584Z,44.98
2023-06-25T05:25:40.719Z,46.08
2023-06-25T05:26:40.643Z,46.81
2023-06-25T05:27:40.702Z,51.23
2023-06-25T05:28:40.719Z,49.00
2023-06-25T05:29:40.798Z,47.31
2023-06-25T05:30:40.847Z,50.66
2023-06-25T05:31:40.984Z,52.23
2023-06-25T05:32:40.925Z,54.36
2023-06-25T05:33:40.945Z,52.36
2023-06-25T05:34:40.999Z,55.44
2023-06-25T05:35:40.986Z,53.96
2023-06-25T05:36:41.032Z,54.27
2023-06-25T05:37:41.112Z,52.20
2023-06-25T05:38:41.151Z,55.73
2023-06-25T05:39:41.165Z,52.02
2023-06-25T05:40:41.220Z,56.36
2023-06-25T05:41:41.216Z,57.12
2023-06-25T05:42:41.283Z,54.18
2023-06-25T05:43:41.330Z,59.38
2023-06-25T05:44:41.374Z,56.58
2023-06-25T05:45:41.399Z,56.83
2023-06-25T05:46:41.442Z,56.30
2023-06-25T05:47:41.480Z,61.42
2023-06-25T05:48:41.519Z,60.54
2023-06-25T05:49:41.586Z,57.12
2023-06-25T05:50:41.598Z,58.98
2023-06-25T05:51:41.617Z,56.51
2023-06-25T05:52:41.643Z,57.73
2023-06-25T05:53:41.745Z,60.22
2023-06-25T05:54:41.845Z,61.46
2023-06-25T05:55:41.745Z,59.18
2023-06-25T05:56:41.785Z,58.62
2023-06-25T05:57:41.832Z,60.93
2023-06-25T05:58:41.845Z,62.86
2023-06-25T05:59:41.901Z,65.21
2023-06-25T06:00:41.963Z,65.54
2023-06-25T06:01:41.974Z,65.46
2023-06-25T06:02:42.000Z,67.62
2023-06-25T06:03:42.069Z,67.20
2023-06-25T06:04:42.047Z,67.72
2023-06-25T06:05:42.082Z,67.07
2023-06-25T06:06:42.181Z,67.75
2023-06-25T06:07:42.214Z,65.84
2023-06-25T06:08:42.165Z,69.77
2023-06-25T06:09:42.190Z,71.43
2023-06-25T06:10:42.229Z,72.24
2023-06-25T06:11:42.248Z,71.64
2023-06-25T06:12:42.315Z,71.66
2023-06-25T06:13:42.334Z,70.87
2023-06-25T06:14:42.344Z,74.18
2023-06-25T06:15:42.375Z,71.46
2023-06-25T06:16:42.379Z,74.94
2023-06-25T06:17:42.498Z,74.62
2023-06-25T06:18:42.447Z,75.19
2023-06-25T06:19:42.518Z,74.28
2023-06-25T06:20:42.514Z,74.26
2023-06-25T06:21:42.519Z,78.25
2023-06-25T06:22:42.581Z,74.41
2023-06-25T06:23:42.600Z,76.00
2023-06-25T06:24:42.624Z,77.05
2023-06-25T06:25:42.637Z,80.38
2023-06-25T06:26:42.702Z,79.15
2023-06-25T06:27:42.748Z,83.28
2023-06-25T06:28:42.709Z,82.96
2023-06-25T06:29:42.756Z,83.99
2023-06-25T06:30:42.816Z,86.36
2023-06-25T06:31:42.827Z,85.78
2023-06-25T06:32:42.894Z,87.04
2023-06-25T06:33:42.859Z,86.84
2023-06-25T06:34:42.902Z,87.63
2023-06-25T06:35:42.931Z,88.25
2023-06-25T06:36:42.937Z,86.81
2023-06-25T06:37:42.981Z,87.21
2023-06-25T06:38:43.007Z,87.53
2023-06-25T06:39:44.078Z,91.57
2023-06-25T06:40:43.050Z,90.26
2023-06-25T06:41:43.080Z,88.48
2023-06-25T06:42:43.111Z,92.44
2023-06-25T06:43:43.102Z,90.52
2023-06-25T06:44:43.154Z,92.87
2023-06-25T06:45:43.184Z,93.52
2023-06-25T06:46:43.239Z,95.29
2023-06-25T06:47:43.706Z,97.10
2023-06-25T06:48:43.252Z,98.45
2023-06-25T06:49:43.294Z,100.35
2023-06-25T06:50:43.288Z,104.40
2023-06-25T06:51:43.340Z,106.99
2023-06-25T06:52:43.338Z,100.17
2023-06-25T06:53:43.355Z,101.05
2023-06-25T06:54:43.358Z,105.18
2023-06-25T06:55:43.379Z,104.44
2023-06-25T06:56:43.406Z,108.39
2023-06-25T06:57:43.442Z,107.37
2023-06-25T06:58:43.440Z,108.78
2023-06-25T06:59:43.457Z,108.22
2023-06-25T07:00:43.455Z,108.51
2023-06-25T07:01:43.472Z,106.74
2023-06-25T07:02:43.561Z,110.20
2023-06-25T07:03:43.478Z,111.80
2023-06-25T07:04:43.506Z,111.51
2023-06-25T07:05:43.565Z,115.35
2023-06-25T07:06:43.551Z,117.15
2023-06-25T07:07:43.626Z,118.62
2023-06-25T07:08:43.528Z,121.00
2023-06-25T07:09:43.591Z,120.37
2023-06-25T07:10:43.565Z,119.60
2023-06-25T07:11:43.590Z,122.10
2023-06-25T07:12:43.582Z,122.88
2023-06-25T07:13:43.625Z,122.05
2023-06-25T07:14:43.610Z,123.79
2023-06-25T07:15:43.649Z,126.95
2023-06-25T07:16:43.663Z,128.76
2023-06-25T07:17:43.691Z,128.75
2023-06-25T07:18:43.631Z,131.99
2023-06-25T07:19:43.652Z,132.61
2023-06-25T07:20:43.663Z,130.20
2023-06-25T07:21:43.714Z,134.91
2023-06-25T07:22:43.669Z,132.88
2023-06-25T07:23:43.674Z,134.15
2023-06-25T07:24:43.654Z,136.99
2023-06-25T07:25:43.675Z,136.93
2023-06-25T07:26:43.663Z,136.28
2023-06-25T07:27:43.665Z,137.59
2023-06-25T07:28:43.710Z,139.58
2023-06-25T07:29:43.666Z,140.52
2023-06-25T07:30:43.663Z,139.51
2023-06-25T07:31:43.714Z,139.44
2023-06-25T07:32:43.701Z,143.59
2023-06-25T07:33:43.643Z,143.76
2023-06-25T07:34:43.689Z,143.85
2023-06-25T07:35:43.656Z,144.66
2023-06-25T07:36:43.684Z,145.74
2023-06-25T07:37:43.675Z,145.35
2023-06-25T07:38:43.653Z,148.88
2023-06-25T07:39:43.680Z,148.66
2023-06-25T07:40:43.674Z,146.52
2023-06-25T07:41:43.679Z,147.70
2023-06-25T07:42:43.690Z,151.20
2023-06-25T07:43:43.723Z,151.84
2023-06-25T07:45:44.018Z,154.49
2023-06-25T07:46:43.970Z,154.40
2023-06-25T07:47:44.024Z,155.01
2023-06-25T07:48:44.098Z,157.56
2023-06-25T07:49:44.142Z,158.18
2023-06-25T07:50:44.139Z,158.50
2023-06-25T07:51:44.159Z,156.73
2023-06-25T07:52:44.169Z,158.61
2023-06-25T07:53:44.234Z,159.24
2023-06-25T07:54:44.286Z,158.81
2023-06-25T07:56:44.270Z,165.16
2023-06-25T07:57:44.280Z,163.71
2023-06-25T07:58:44.269Z,162.85
2023-06-25T07:59:53.175Z,165.21
2023-06-25T08:00:45.282Z,165.74
2023-06-25T08:01:44.259Z,166.30
2023-06-25T08:02:44.301Z,167.92
2023-06-25T08:03:44.794Z,168.45
2023-06-25T08:04:44.286Z,171.04
2023-06-25T08:05:44.253Z,170.30
2023-06-25T08:06:44.233Z,170.20
2023-06-25T08:07:44.232Z,170.57
2023-06-25T08:08:44.249Z,168.27
2023-06-25T08:09:44.223Z,169.52
2023-06-25T08:10:44.244Z,173.07
2023-06-25T08:11:44.248Z,174.29
2023-06-25T08:12:44.330Z,174.81
2023-06-25T08:13:44.700Z,177.52
2023-06-25T08:14:44.405Z,178.90
2023-06-25T08:15:44.489Z,178.92
2023-06-25T08:16:44.541Z,178.47
2023-06-25T08:17:44.620Z,177.24
2023-06-25T08:18:44.736Z,180.26
2023-06-25T08:19:44.682Z,177.66
2023-06-25T08:20:44.745Z,179.60
2023-06-25T08:21:44.791Z,178.33
2023-06-25T08:22:44.859Z,176.37
2023-06-25T08:23:45.272Z,178.18
2023-06-25T08:24:44.899Z,181.13
2023-06-25T08:25:44.986Z,178.95
2023-06-25T08:26:45.051Z,181.54
2023-06-25T08:27:45.087Z,182.02
2023-06-25T08:28:45.245Z,184.81
2023-06-25T08:29:45.164Z,183.94
2023-06-25T08:30:45.258Z,186.42
2023-06-25T08:31:45.328Z,186.62
2023-06-25T08:32:45.450Z,188.64
2023-06-25T08:33:45.434Z,184.77
2023-06-25T08:34:45.507Z,186.85
2023-06-25T08:35:45.553Z,184.44
2023-06-25T08:36:45.628Z,187.53
2023-06-25T08:37:45.668Z,188.07
2023-06-25T08:38:45.758Z,185.52
2023-06-25T08:39:45.776Z,190.20
2023-06-25T08:40:45.849Z,185.90
2023-06-25T08:41:45.928Z,189.84
2023-06-25T08:42:46.009Z,188.61
2023-06-25T08:43:46.061Z,189.44
2023-06-25T08:44:46.215Z,190.35
2023-06-25T08:45:46.208Z,187.42
2023-06-25T08:46:46.319Z,189.21
2023-06-25T08:47:46.339Z,190.60
2023-06-25T08:48:46.412Z,192.72
2023-06-25T08:49:46.478Z,193.74
2023-06-25T08:50:46.517Z,195.03
2023-06-25T08:51:46.570Z,194.55
2023-06-25T08:52:46.626Z,198.76
2023-06-25T08:53:46.716Z,197.79
2023-06-25T08:54:46.759Z,198.58
2023-06-25T08:55:46.774Z,196.50
2023-06-25T08:56:46.870Z,195.81
2023-06-25T08:57:46.903Z,199.95
2023-06-25T08:58:46.992Z,201.06
2023-06-25T08:59:47.034Z,202.67
2023-06-25T09:00:47.114Z,200.75
2023-06-25T09:01:47.130Z,201.94
2023-06-25T09:02:47.251Z,202.54
2023-06-25T09:03:47.240Z,201.91
2023-06-25T09:04:47.249Z,200.24
2023-06-25T09:05:47.302Z,205.42
2023-06-25T09:07:03.237Z,202.50
2023-06-25T09:07:48.450Z,202.74
2023-06-25T09:08:47.361Z,203.26
2023-06-25T09:09:47.342Z,203.63
2023-06-25T09:10:47.337Z,202.12
2023-06-25T09:11:47.320Z,201.14
2023-06-25T09:12:47.324Z,201.47
2023-06-25T09:13:47.329Z,200.44
2023-06-25T09:14:47.285Z,200.97
2023-06-25T09:15:47.309Z,199.29
2023-06-25T09:16:47.315Z,201.58
2023-06-25T09:17:47.301Z,203.23
2023-06-25T09:18:47.263Z,203.06
2023-06-25T09:19:47.313Z,203.15
2023-06-25T09:20:47.840Z,202.80
2023-06-25T09:21:47.409Z,204.86
2023-06-25T09:22:47.416Z,203.07
2023-06-25T09:23:47.765Z,205.86
2023-06-25T09:24:47.509Z,203.59
2023-06-25T09:25:47.567Z,204.52
2023-06-25T09:26:47.580Z,205.34
2023-06-25T09:27:47.644Z,203.86
2023-06-25T09:28:47.773Z,208.54
2023-06-25T09:29:47.677Z,208.43
2023-06-25T09:30:47.792Z,203.84
2023-06-25T09:31:47.738Z,206.23
2023-06-25T09:32:48.491Z,201.98
2023-06-25T09:33:48.247Z,207.81
2023-06-25T09:34:47.757Z,206.71
2023-06-25T09:35:47.792Z,205.66
2023-06-25T09:36:47.781Z,207.67
2023-06-25T09:37:47.772Z,206.20
2023-06-25T09:38:47.764Z,205.57
2023-06-25T09:39:47.735Z,206.67
2023-06-25T09:40:47.752Z,204.66
2023-06-25T09:41:47.729Z,205.48
2023-06-25T09:42:47.757Z,207.17
2023-06-25T09:43:47.767Z,207.40
2023-06-25T09:44:48.008Z,210.81
2023-06-25T09:45:47.757Z,211.23
2023-06-25T09:46:47.710Z,210.96
2023-06-25T09:47:47.723Z,212.17
2023-06-25T09:48:47.706Z,209.64
2023-06-25T09:49:47.671Z,209.97
2023-06-25T09:50:49.094Z,208.40
2023-06-25T09:51:47.693Z,211.73
2023-06-25T09:52:47.689Z,204.85
2023-06-25T09:53:47.676Z,209.11
2023-06-25T09:54:47.634Z,208.17
2023-06-25T09:55:47.625Z,206.59
2023-06-25T09:56:47.638Z,208.65
2023-06-25T09:57:47.609Z,206.06
2023-06-25T09:58:47.648Z,205.85
2023-06-25T09:59:47.666Z,206.82
2023-06-25T10:00:47.666Z,207.56
2023-06-25T10:01:47.746Z,207.03
2023-06-25T10:02:47.786Z,206.19
2023-06-25T10:03:47.819Z,205.80
2023-06-25T10:04:47.759Z,206.55
2023-06-25T10:05:47.665Z,209.73
2023-06-25T10:06:47.732Z,206.50
2023-06-25T10:07:47.678Z,208.77
2023-06-25T10:08:47.664Z,206.77
2023-06-25T10:09:47.666Z,212.46
2023-06-25T10:10:47.685Z,212.15
2023-06-25T10:11:47.689Z,210.23
2023-06-25T10:12:47.704Z,206.07
2023-06-25T10:13:47.678Z,207.93
2023-06-25T10:14:47.678Z,211.49
2023-06-25T10:15:47.699Z,209.84
2023-06-25T10:16:47.671Z,209.25
2023-06-25T10:17:47.809Z,211.84
2023-06-25T10:18:47.658Z,206.36
2023-06-25T10:19:47.654Z,210.62
2023-06-25T10:20:47.693Z,211.15
2023-06-25T10:21:47.671Z,211.34
2023-06-25T10:22:47.657Z,205.05
2023-06-25T10:23:47.710Z,205.59
2023-06-25T10:24:47.666Z,208.43
2023-06-25T10:25:47.653Z,208.93
2023-06-25T10:26:47.636Z,209.67
2023-06-25T10:27:47.669Z,205.62
2023-06-25T10:28:47.673Z,208.79
2023-06-25T10:29:47.718Z,209.14
2023-06-25T10:30:47.725Z,208.50
2023-06-25T10:31:47.800Z,206.70
2023-06-25T10:32:47.806Z,207.18
2023-06-25T10:33:47.728Z,206.23
2023-06-25T10:34:47.722Z,206.75
2023-06-25T10:35:47.841Z,204.68
2023-06-25T10:36:47.757Z,205.73
2023-06-25T10:37:47.812Z,205.59
2023-06-25T10:38:47.847Z,204.95
2023-06-25T10:39:47.840Z,204.06
2023-06-25T10:40:47.882Z,202.79
2023-06-25T10:41:47.883Z,204.38
2023-06-25T10:42:47.881Z,204.42
2023-06-25T10:43:47.924Z,205.86
2023-06-25T10:44:47.895Z,204.95
2023-06-25T10:45:47.926Z,206.06
2023-06-25T10:46:48.007Z,203.66
2023-06-25T10:47:47.993Z,203.16
2023-06-25T10:48:48.004Z,203.64
2023-06-25T10:49:48.024Z,206.31
2023-06-25T10:50:48.034Z,205.23
2023-06-25T10:51:48.034Z,204.20
2023-06-25T10:52:48.074Z,205.77
2023-06-25T10:53:48.095Z,203.89
2023-06-25T10:54:48.113Z,204.06
2023-06-25T10:55:48.138Z,204.17
2023-06-25T10:56:49.715Z,204.96
2023-06-25T10:57:48.155Z,203.38
2023-06-25T10:58:48.169Z,204.53
2023-06-25T10:59:48.205Z,202.18
2023-06-25T11:00:48.257Z,207.24
2023-06-25T11:01:48.260Z,204.97
2023-06-25T11:02:48.345Z,204.35
2023-06-25T11:03:48.388Z,204.01
2023-06-25T11:04:48.345Z,205.79
2023-06-25T11:05:48.347Z,201.48
2023-06-25T11:06:48.393Z,206.27
2023-06-25T11:07:48.449Z,204.71
2023-06-25T11:08:48.471Z,203.05
2023-06-25T11:09:48.484Z,201.29
2023-06-25T11:10:48.493Z,201.41
2023-06-25T11:11:48.559Z,201.31
2023-06-25T11:12:48.563Z,202.66
2023-06-25T11:13:48.619Z,201.68
2023-06-25T11:14:48.666Z,202.19
2023-06-25T11:15:48.732Z,201.19
2023-06-25T11:16:48.783Z,201.00
2023-06-25T11:17:49.894Z,199.82
2023-06-25T11:18:48.874Z,201.58
2023-06-25T11:19:48.936Z,199.35
2023-06-25T11:20:48.967Z,201.56
2023-06-25T11:21:48.989Z,198.87
2023-06-25T11:22:49.072Z,199.49
2023-06-25T11:23:49.136Z,199.43
2023-06-25T11:24:49.191Z,198.19
2023-06-25T11:25:49.400Z,198.70
2023-06-25T11:26:49.269Z,197.69
2023-06-25T11:27:49.304Z,197.41
2023-06-25T11:28:49.841Z,197.03
2023-06-25T11:29:49.474Z,196.73
2023-06-25T11:30:49.538Z,198.77
2023-06-25T11:31:49.581Z,194.28
2023-06-25T11:32:49.756Z,194.87
2023-06-25T11:33:49.848Z,195.08
2023-06-25T11:34:49.766Z,194.44
2023-06-25T11:35:49.799Z,193.43
2023-06-25T11:36:49.894Z,194.55
2023-06-25T11:37:49.942Z,196.70
2023-06-25T11:38:50.315Z,194.58
2023-06-25T11:39:50.111Z,193.69
2023-06-25T11:40:50.117Z,193.05
2023-06-25T11:41:50.158Z,193.19
2023-06-25T11:42:50.395Z,194.34
2023-06-25T11:43:50.308Z,193.39
2023-06-25T11:44:50.346Z,194.11
2023-06-25T11:45:50.381Z,192.11
2023-06-25T11:46:50.435Z,192.88
2023-06-25T11:47:50.581Z,193.31
2023-06-25T11:48:50.593Z,194.25
2023-06-25T11:49:50.639Z,191.82
2023-06-25T11:50:50.721Z,193.73
2023-06-25T11:51:50.767Z,193.74
2023-06-25T11:52:50.892Z,192.45
2023-06-25T11:53:50.907Z,193.35
2023-06-25T11:54:50.976Z,192.38
2023-06-25T11:55:51.055Z,192.94
2023-06-25T11:56:51.096Z,190.04
2023-06-25T11:57:51.118Z,192.25
2023-06-25T11:58:51.213Z,190.57
2023-06-25T11:59:51.234Z,189.99
2023-06-25T12:00:51.281Z,192.40
2023-06-25T12:01:51.397Z,190.35
2023-06-25T12:02:51.433Z,189.53
2023-06-25T12:03:51.923Z,190.44
2023-06-25T12:04:51.550Z,189.26
2023-06-25T12:05:51.628Z,190.06
2023-06-25T12:06:51.696Z,187.71
2023-06-25T12:07:51.705Z,188.49
2023-06-25T12:08:51.760Z,186.61
2023-06-25T12:09:51.803Z,188.55
2023-06-25T12:10:51.885Z,185.41
2023-06-25T12:11:51.946Z,188.16
2023-06-25T12:12:52.055Z,187.96
2023-06-25T12:13:52.068Z,184.56
2023-06-25T12:14:52.122Z,186.84
2023-06-25T12:15:52.212Z,187.66
2023-06-25T12:16:52.253Z,186.76
2023-06-25T12:17:52.347Z,184.10
2023-06-25T12:18:52.364Z,185.12
2023-06-25T12:19:52.420Z,185.26
2023-06-25T12:20:52.478Z,186.29
2023-06-25T12:21:52.549Z,184.86
2023-06-25T12:22:52.597Z,184.11
2023-06-25T12:23:52.668Z,183.11
2023-06-25T12:24:52.719Z,186.20
2023-06-25T12:25:52.776Z,184.08
2023-06-25T12:26:52.828Z,185.27
2023-06-25T12:27:52.872Z,182.42
2023-06-25T12:28:52.957Z,183.33
2023-06-25T12:29:52.982Z,183.34
2023-06-25T12:30:53.056Z,182.16
2023-06-25T12:31:53.177Z,182.38
2023-06-25T12:32:56.470Z,181.53
2023-06-25T12:33:53.168Z,186.19
2023-06-25T12:34:53.181Z,184.59
2023-06-25T12:35:53.142Z,184.69
2023-06-25T12:36:53.157Z,184.04
2023-06-25T12:37:53.392Z,182.40
2023-06-25T12:38:55.446Z,183.44
2023-06-25T12:39:53.213Z,183.59
2023-06-25T12:40:53.111Z,183.86
2023-06-25T12:41:53.109Z,183.92
2023-06-25T12:42:53.095Z,182.35
2023-06-25T12:43:53.101Z,182.78